Time;durP1;ratioP1;P1;durP2;ratioP2;P2;SDS_P1;SDS_P2;PMS_P1;PMS_P2;Temp;Humidity;BMP_temperature;BMP_pressure;BME280_temperature;BME280_humidity;BME280_pressure;Samples;Min_cycle;Max_cycle;Signal;HPM_P1;HPM_P2
2021/06/17 00:01:48;;;;;;;4.15;3.45;;;28.10;48.50;;;;;;5057903;28;20118;-80
2021/06/17 00:04:14;;;;;;;3.90;3.35;;;28.10;48.60;;;;;;5055445;28;20047;-79
2021/06/17 00:06:39;;;;;;;4.82;3.50;;;28.10;48.60;;;;;;5083222;28;20345;-79
2021/06/17 00:09:05;;;;;;;4.20;3.65;;;28.10;48.60;;;;;;5040738;28;20108;-79
2021/06/17 00:11:31;;;;;;;4.45;3.67;;;28.00;48.60;;;;;;5066667;28;20496;-78
2021/06/17 00:13:57;;;;;;;4.72;3.80;;;28.00;48.60;;;;;;5056410;28;20419;-80
2021/06/17 00:16:23;;;;;;;4.90;3.67;;;28.00;49.40;;;;;;5076040;28;20043;-79
2021/06/17 00:18:49;;;;;;;4.90;3.85;;;27.90;49.30;;;;;;5075660;28;20024;-79
2021/06/17 00:21:16;;;;;;;4.45;3.72;;;27.90;48.70;;;;;;5074013;28;20036;-79
2021/06/17 00:23:41;;;;;;;4.57;3.58;;;27.90;48.80;;;;;;5075047;28;20024;-79
2021/06/17 00:26:07;;;;;;;5.10;3.90;;;27.80;48.70;;;;;;5059194;28;20069;-79
2021/06/17 00:28:33;;;;;;;4.22;3.47;;;27.80;48.70;;;;;;5059210;28;20031;-79
2021/06/17 00:30:59;;;;;;;5.53;3.83;;;27.80;48.90;;;;;;5075704;28;20036;-79
2021/06/17 00:33:26;;;;;;;4.82;4.00;;;27.70;49.50;;;;;;5057352;28;20025;-79
2021/06/17 00:35:52;;;;;;;4.55;3.58;;;27.80;49.00;;;;;;5057404;28;20038;-79
2021/06/17 00:38:17;;;;;;;4.30;3.65;;;27.70;48.90;;;;;;5075980;28;20106;-78
2021/06/17 00:40:44;;;;;;;4.50;3.65;;;27.70;49.00;;;;;;5058540;28;20503;-79
2021/06/17 00:43:10;;;;;;;4.22;3.30;;;27.60;48.90;;;;;;5058700;28;20107;-79
2021/06/17 00:45:40;;;;;;;4.50;3.38;;;27.60;49.00;;;;;;5058793;28;20039;-79
2021/06/17 00:48:07;;;;;;;5.90;3.90;;;27.60;49.00;;;;;;5074869;28;20046;-79
2021/06/17 00:50:37;;;;;;;4.13;3.67;;;27.60;49.00;;;;;;5060695;28;20036;-79
2021/06/17 00:53:13;;;;;;;4.30;3.47;;;27.50;49.00;;;;;;5075561;28;21605;-79
2021/06/17 00:55:42;;;;;;;4.43;3.63;;;27.50;49.10;;;;;;5075265;28;20094;-78
2021/06/17 00:58:09;;;;;;;4.60;3.70;;;27.40;49.00;;;;;;5058758;28;20460;-79
2021/06/17 01:00:35;;;;;;;4.43;3.90;;;27.40;49.00;;;;;;5074575;28;20028;-79
2021/06/17 01:03:01;;;;;;;4.80;3.55;;;27.40;49.10;;;;;;5057793;28;20077;-79
2021/06/17 01:05:27;;;;;;;4.72;3.60;;;27.40;49.20;;;;;;5092793;28;20028;-79
2021/06/17 01:08:03;;;;;;;4.97;3.90;;;27.40;49.20;;;;;;5057579;28;20039;-79
2021/06/17 01:10:40;;;;;;;4.30;3.58;;;27.30;49.20;;;;;;5085693;28;20033;-80
2021/06/17 01:13:14;;;;;;;4.60;3.80;;;27.30;49.20;;;;;;5074303;28;20020;-78
2021/06/17 01:15:51;;;;;;;4.47;3.60;;;27.30;49.20;;;;;;5073990;28;20084;-79
2021/06/17 01:18:18;;;;;;;4.50;3.72;;;27.30;49.30;;;;;;5074539;28;20024;-79
2021/06/17 01:20:53;;;;;;;4.47;3.42;;;27.20;49.30;;;;;;5057807;28;20072;-79
2021/06/17 01:23:31;;;;;;;5.35;3.90;;;27.20;49.40;;;;;;5074894;28;20153;-79
2021/06/17 01:26:22;;;;;;;4.90;4.00;;;27.20;49.40;;;;;;5067395;28;20024;-79
2021/06/17 01:28:52;;;;;;;4.32;3.47;;;27.10;49.40;;;;;;5066294;28;20421;-79
2021/06/17 01:31:25;;;;;;;4.70;3.65;;;27.10;49.40;;;;;;5092826;28;20036;-79
2021/06/17 01:33:53;;;;;;;4.30;3.42;;;27.10;49.50;;;;;;5057656;28;20334;-79
2021/06/17 01:36:34;;;;;;;4.50;3.60;;;27.00;49.40;;;;;;5074372;28;20027;-79
2021/06/17 01:39:04;;;;;;;4.38;3.65;;;27.00;49.50;;;;;;5057730;28;20376;-79
2021/06/17 01:41:36;;;;;;;4.70;3.90;;;27.00;49.50;;;;;;5053755;28;20048;-78
2021/06/17 01:44:03;;;;;;;5.05;3.72;;;26.90;49.50;;;;;;5073079;28;20031;-79
2021/06/17 01:46:33;;;;;;;5.28;3.85;;;26.90;49.50;;;;;;5074386;28;20098;-79
2021/06/17 01:49:00;;;;;;;4.28;3.47;;;26.90;49.60;;;;;;5074527;28;20074;-79
2021/06/17 01:51:27;;;;;;;4.90;3.70;;;26.90;49.60;;;;;;5073498;28;20033;-79
2021/06/17 01:53:53;;;;;;;4.40;3.50;;;26.80;49.50;;;;;;5056742;28;20242;-79
2021/06/17 01:56:22;;;;;;;4.60;3.83;;;26.80;49.60;;;;;;5057077;28;20028;-79
2021/06/17 01:58:51;;;;;;;4.35;3.53;;;26.80;49.60;;;;;;5073956;28;20028;-79
2021/06/17 02:01:18;;;;;;;4.30;3.65;;;26.70;49.60;;;;;;5074181;28;20098;-78
2021/06/17 02:03:45;;;;;;;4.43;3.63;;;26.70;49.60;;;;;;5070456;28;20049;-78
2021/06/17 02:06:15;;;;;;;4.30;3.40;;;26.70;49.70;;;;;;5057167;28;20125;-79
2021/06/17 02:08:44;;;;;;;4.60;3.70;;;26.70;49.70;;;;;;5073831;28;20106;-79
2021/06/17 02:11:10;;;;;;;4.38;3.63;;;26.70;49.70;;;;;;5073863;28;20024;-79
2021/06/17 02:13:36;;;;;;;4.80;3.90;;;26.70;49.90;;;;;;5056929;28;20496;-79
2021/06/17 02:16:05;;;;;;;5.18;3.92;;;26.60;49.70;;;;;;5057118;28;20020;-78
2021/06/17 02:18:33;;;;;;;4.30;3.60;;;26.60;49.80;;;;;;5056771;28;20035;-79
2021/06/17 02:20:59;;;;;;;4.65;3.72;;;26.60;49.80;;;;;;5091134;28;20073;-78
2021/06/17 02:23:29;;;;;;;4.60;3.47;;;26.50;49.80;;;;;;5073741;28;20036;-78
2021/06/17 02:25:56;;;;;;;4.50;3.65;;;26.50;49.80;;;;;;5072670;28;20016;-78
2021/06/17 02:28:24;;;;;;;4.55;3.75;;;26.50;49.80;;;;;;5056824;28;20024;-78
2021/06/17 02:30:52;;;;;;;4.60;3.80;;;26.50;49.90;;;;;;5056899;28;20085;-79
2021/06/17 02:33:20;;;;;;;4.70;3.70;;;26.40;49.90;;;;;;5091508;28;20029;-78
2021/06/17 02:35:49;;;;;;;4.43;3.63;;;26.40;49.90;;;;;;5054068;28;20028;-78
2021/06/17 02:38:16;;;;;;;4.43;3.72;;;26.40;49.90;;;;;;5056360;28;20522;-79
2021/06/17 02:40:45;;;;;;;4.40;3.80;;;26.40;50.00;;;;;;5091722;28;20035;-78
2021/06/17 02:43:17;;;;;;;4.45;3.70;;;26.30;49.90;;;;;;5057003;28;20105;-78
2021/06/17 02:45:43;;;;;;;4.57;3.80;;;26.30;50.00;;;;;;5072861;28;20035;-79
2021/06/17 02:48:10;;;;;;;5.65;4.05;;;26.30;50.00;;;;;;5073496;28;20081;-79
2021/06/17 02:50:36;;;;;;;5.15;4.07;;;26.30;50.00;;;;;;5073700;28;20028;-79
2021/06/17 02:53:03;;;;;;;4.72;3.90;;;26.20;50.00;;;;;;5055801;28;20048;-78
2021/06/17 02:55:29;;;;;;;4.65;3.83;;;26.20;50.00;;;;;;5073426;28;20029;-79
2021/06/17 02:58:33;;;;;;;4.63;3.90;;;26.20;50.00;;;;;;5072931;28;20028;-79
2021/06/17 03:01:06;;;;;;;4.70;3.45;;;26.20;50.20;;;;;;5073253;28;20988;-79
2021/06/17 03:03:39;;;;;;;4.63;3.75;;;26.20;50.10;;;;;;5072682;28;20031;-79
2021/06/17 03:06:13;;;;;;;4.90;4.22;;;26.10;50.10;;;;;;5056605;28;20062;-78
2021/06/17 03:09:08;;;;;;;;;;;26.10;50.20;;;;;;5060931;28;20035;-79
2021/06/17 03:11:37;;;;;;;3.57;2.80;;;26.10;50.00;;;;;;5059843;28;19920;-79
2021/06/17 03:14:09;;;;;;;4.45;3.33;;;26.10;50.00;;;;;;5091706;28;20030;-79
2021/06/17 03:16:37;;;;;;;4.53;3.72;;;26.00;50.10;;;;;;5073144;28;20035;-79
2021/06/17 03:19:04;;;;;;;4.43;3.65;;;26.00;50.20;;;;;;5056643;28;20036;-78
2021/06/17 03:21:39;;;;;;;4.82;3.90;;;26.00;50.30;;;;;;5073273;28;20113;-78
2021/06/17 03:24:06;;;;;;;4.97;3.90;;;25.90;50.30;;;;;;5074779;28;20032;-79
2021/06/17 03:26:35;;;;;;;4.85;4.03;;;25.90;50.20;;;;;;5056450;28;20028;-79
2021/06/17 03:29:02;;;;;;;4.80;4.00;;;25.90;50.30;;;;;;5090913;28;20016;-79
2021/06/17 03:31:29;;;;;;;4.78;3.75;;;25.90;50.30;;;;;;5073222;28;20114;-78
2021/06/17 03:33:57;;;;;;;5.32;4.10;;;25.90;50.30;;;;;;5073173;28;20032;-79
2021/06/17 03:36:24;;;;;;;5.65;4.18;;;25.90;50.30;;;;;;5047667;28;20032;-78
2021/06/17 03:38:52;;;;;;;5.50;4.35;;;25.90;50.30;;;;;;5076553;28;20494;-78
2021/06/17 03:41:19;;;;;;;5.07;4.03;;;25.90;50.40;;;;;;5076872;28;20054;-78
2021/06/17 03:43:47;;;;;;;5.13;4.57;;;25.90;50.40;;;;;;5059497;28;20028;-78
2021/06/17 03:46:15;;;;;;;4.90;4.10;;;25.80;50.40;;;;;;5049182;28;20433;-78
2021/06/17 03:48:43;;;;;;;4.30;3.75;;;25.80;50.40;;;;;;5088716;28;20020;-79
2021/06/17 03:51:12;;;;;;;5.03;4.25;;;25.80;50.50;;;;;;5093974;28;20149;-79
2021/06/17 03:53:39;;;;;;;5.70;4.55;;;25.80;50.50;;;;;;5072519;28;20094;-79
2021/06/17 03:56:06;;;;;;;5.82;4.75;;;25.80;50.50;;;;;;5072443;28;20012;-78
2021/06/17 03:58:32;;;;;;;5.68;4.65;;;25.80;50.60;;;;;;5073515;28;20029;-79
2021/06/17 04:00:59;;;;;;;4.85;4.22;;;25.80;50.60;;;;;;5071181;28;20039;-78
2021/06/17 04:03:27;;;;;;;5.55;4.72;;;25.70;50.50;;;;;;5072952;28;20103;-78
2021/06/17 04:05:56;;;;;;;5.22;4.35;;;25.70;50.60;;;;;;5072228;28;20520;-78
2021/06/17 04:08:26;;;;;;;5.15;4.18;;;25.70;50.60;;;;;;5071896;28;20021;-79
2021/06/17 04:10:58;;;;;;;5.22;4.30;;;25.70;50.60;;;;;;5061992;28;20036;-79
2021/06/17 04:13:30;;;;;;;5.28;4.55;;;25.70;50.70;;;;;;5069752;28;20023;-79
2021/06/17 04:15:58;;;;;;;6.13;4.55;;;25.70;50.70;;;;;;5046521;28;20116;-78
2021/06/17 04:18:25;;;;;;;6.13;4.57;;;25.70;50.70;;;;;;5053825;28;20086;-79
2021/06/17 04:20:54;;;;;;;5.40;4.45;;;25.70;50.70;;;;;;5066684;28;20040;-78
2021/06/17 04:23:21;;;;;;;5.18;4.53;;;25.60;50.70;;;;;;5073330;28;20032;-78
2021/06/17 04:25:49;;;;;;;6.63;4.70;;;25.60;50.80;;;;;;5073882;28;20104;-79
2021/06/17 04:28:15;;;;;;;6.32;4.70;;;25.60;50.80;;;;;;5055985;28;20041;-78
2021/06/17 04:30:44;;;;;;;6.22;4.63;;;25.60;50.80;;;;;;5071563;28;20036;-78
2021/06/17 04:33:13;;;;;;;5.40;4.63;;;25.60;50.90;;;;;;5063298;28;20037;-78
2021/06/17 04:35:44;;;;;;;5.43;4.55;;;25.60;50.90;;;;;;5071632;28;20082;-79
2021/06/17 04:38:12;;;;;;;5.13;4.55;;;25.50;50.90;;;;;;5054711;28;20059;-79
2021/06/17 04:40:39;;;;;;;5.10;4.40;;;25.50;50.90;;;;;;5069233;28;20021;-78
2021/06/17 04:43:05;;;;;;;5.32;4.55;;;25.50;50.90;;;;;;5048101;28;20060;-78
2021/06/17 04:45:32;;;;;;;5.53;4.70;;;25.50;50.90;;;;;;5072287;28;20099;-82
2021/06/17 04:48:00;;;;;;;5.15;4.35;;;25.50;50.90;;;;;;5071681;28;20016;-79
2021/06/17 04:50:27;;;;;;;5.50;4.88;;;25.50;51.00;;;;;;5072145;28;20028;-78
2021/06/17 04:52:56;;;;;;;6.05;4.70;;;25.50;51.00;;;;;;5039535;28;20406;-78
2021/06/17 04:55:22;;;;;;;6.35;4.70;;;25.50;51.10;;;;;;5063703;28;20037;-80
2021/06/17 04:57:48;;;;;;;5.20;4.47;;;25.50;51.10;;;;;;5053944;28;20105;-79
2021/06/17 05:00:14;;;;;;;5.25;4.35;;;25.50;51.10;;;;;;5035291;28;20133;-79
2021/06/17 05:02:39;;;;;;;5.90;4.78;;;25.50;51.10;;;;;;5067508;28;21291;-79
2021/06/17 05:05:08;;;;;;;6.22;4.75;;;25.50;51.20;;;;;;5068307;28;20074;-79
2021/06/17 05:10:48;;;;;;;6.65;4.78;;;25.50;51.20;;;;;;5068508;28;20372;-79
2021/06/17 05:12:54;;;;;;;5.25;4.47;;;25.50;51.30;;;;;;5056672;28;20025;-78
2021/06/17 05:15:20;;;;;;;6.20;4.88;;;25.50;51.20;;;;;;5071803;28;20028;-78
2021/06/17 05:17:46;;;;;;;5.30;4.55;;;25.40;51.20;;;;;;5073188;28;20484;-75
2021/06/17 05:20:12;;;;;;;5.03;4.32;;;25.40;51.20;;;;;;5037000;28;20032;-76
2021/06/17 05:22:41;;;;;;;5.20;4.30;;;25.40;51.30;;;;;;5071873;28;20036;-76
2021/06/17 05:25:07;;;;;;;6.22;4.75;;;25.40;51.30;;;;;;5071141;28;20032;-76
2021/06/17 05:27:33;;;;;;;5.68;4.45;;;25.40;51.30;;;;;;5054239;28;20025;-76
2021/06/17 05:29:59;;;;;;;5.63;4.95;;;25.50;51.30;;;;;;5071878;28;20393;-76
2021/06/17 05:32:25;;;;;;;5.70;4.45;;;25.40;51.30;;;;;;5072462;28;20440;-78
2021/06/17 05:34:51;;;;;;;5.03;4.07;;;25.50;51.40;;;;;;5071276;28;20427;-76
2021/06/17 05:37:17;;;;;;;5.38;4.88;;;25.50;51.30;;;;;;5071655;28;20025;-76
2021/06/17 05:39:43;;;;;;;5.40;4.45;;;25.50;51.40;;;;;;5071009;28;20028;-78
2021/06/17 05:42:09;;;;;;;5.78;4.45;;;25.50;51.40;;;;;;5070499;28;20037;-78
2021/06/17 05:44:35;;;;;;;5.50;4.60;;;25.50;51.40;;;;;;5051392;28;20029;-76
2021/06/17 05:47:01;;;;;;;6.38;5.07;;;25.50;51.40;;;;;;5065379;28;20032;-77
2021/06/17 05:49:28;;;;;;;4.95;3.92;;;25.50;51.40;;;;;;5059183;28;20021;-79
2021/06/17 05:51:54;;;;;;;5.47;3.92;;;25.50;51.40;;;;;;5070294;28;20050;-78
2021/06/17 05:54:20;;;;;;;5.55;4.38;;;25.50;51.40;;;;;;5054333;28;20056;-76
2021/06/17 05:56:46;;;;;;;5.28;4.20;;;25.50;51.40;;;;;;5070653;28;20090;-76
2021/06/17 05:59:11;;;;;;;5.07;4.13;;;25.50;51.40;;;;;;5054360;28;20479;-76
2021/06/17 06:01:37;;;;;;;5.20;4.22;;;25.50;51.40;;;;;;5071168;28;20032;-77
2021/06/17 06:04:03;;;;;;;4.82;4.15;;;25.50;51.40;;;;;;5071034;28;20032;-76
2021/06/17 06:06:29;;;;;;;5.57;4.60;;;25.50;51.40;;;;;;5058543;28;20366;-76
2021/06/17 06:08:55;;;;;;;5.20;4.28;;;25.50;51.50;;;;;;5050409;28;20461;-76
2021/06/17 06:11:21;;;;;;;5.20;4.30;;;25.50;51.50;;;;;;5056993;28;20477;-76
2021/06/17 06:13:46;;;;;;;4.72;4.10;;;25.50;51.60;;;;;;5054546;28;20420;-76
2021/06/17 06:16:13;;;;;;;4.97;4.32;;;25.50;51.60;;;;;;5070168;28;20028;-76
2021/06/17 06:18:39;;;;;;;4.72;3.92;;;25.60;51.70;;;;;;5070869;28;20035;-76
2021/06/17 06:21:05;;;;;;;4.88;3.67;;;25.60;51.70;;;;;;5070292;28;20500;-77
2021/06/17 06:23:31;;;;;;;6.13;3.92;;;25.60;51.70;;;;;;5071124;28;20158;-76
2021/06/17 06:25:58;;;;;;;5.82;4.25;;;25.60;51.70;;;;;;5070861;28;20028;-77
2021/06/17 06:28:24;;;;;;;5.53;4.47;;;25.60;51.70;;;;;;5067515;28;20103;-76
2021/06/17 06:30:51;;;;;;;5.72;4.15;;;25.60;51.70;;;;;;5061129;28;20037;-76
2021/06/17 06:33:21;;;;;;;6.38;4.30;;;25.70;51.90;;;;;;5069382;28;20064;-76
2021/06/17 06:35:48;;;;;;;4.38;3.65;;;25.70;51.90;;;;;;5069271;28;20025;-82
2021/06/17 06:38:14;;;;;;;5.50;4.13;;;25.70;51.90;;;;;;5062388;28;20033;-78
2021/06/17 06:40:40;;;;;;;4.90;4.07;;;25.70;51.90;;;;;;5054323;28;20510;-81
2021/06/17 06:43:11;;;;;;;4.78;3.95;;;25.70;51.90;;;;;;5071929;28;20020;-79
2021/06/17 06:45:37;;;;;;;5.05;4.28;;;25.80;52.10;;;;;;5052988;28;20029;-78
2021/06/17 06:48:04;;;;;;;4.90;4.05;;;25.80;52.00;;;;;;5070824;28;20527;-79
2021/06/17 06:50:30;;;;;;;4.85;3.80;;;25.80;52.00;;;;;;5070333;28;20028;-80
2021/06/17 06:52:56;;;;;;;4.20;3.67;;;25.80;52.00;;;;;;5078128;28;20056;-79
2021/06/17 06:55:22;;;;;;;5.05;4.00;;;25.80;52.00;;;;;;5092011;28;20425;-78
2021/06/17 06:57:48;;;;;;;4.07;3.42;;;25.80;52.00;;;;;;5092152;28;20047;-78
2021/06/17 07:00:16;;;;;;;5.15;4.03;;;25.90;52.10;;;;;;5073958;28;20028;-78
2021/06/17 07:02:42;;;;;;;4.05;3.60;;;25.90;52.10;;;;;;5092437;28;20031;-78
2021/06/17 07:05:09;;;;;;;4.47;3.67;;;25.90;52.10;;;;;;5060099;28;20358;-78
2021/06/17 07:07:35;;;;;;;5.47;4.20;;;25.90;52.10;;;;;;5091778;28;20039;-78
2021/06/17 07:10:01;;;;;;;5.28;3.95;;;25.90;52.70;;;;;;5073768;28;20041;-79
2021/06/17 07:12:27;;;;;;;4.75;3.70;;;26.00;52.20;;;;;;5057888;28;20056;-80
2021/06/17 07:14:53;;;;;;;4.97;3.58;;;26.00;52.20;;;;;;5061384;28;20447;-78
2021/06/17 07:17:18;;;;;;;5.05;3.63;;;26.10;52.20;;;;;;5037228;28;20476;-79
2021/06/17 07:19:44;;;;;;;4.53;3.53;;;26.10;52.20;;;;;;5041994;28;20029;-78
2021/06/17 07:22:10;;;;;;;5.28;3.58;;;26.10;52.20;;;;;;5094885;28;20056;-79
2021/06/17 07:24:36;;;;;;;4.45;3.25;;;26.20;52.20;;;;;;5096097;28;20028;-78
2021/06/17 07:27:03;;;;;;;4.63;3.80;;;26.20;52.20;;;;;;5077649;28;20028;-81
2021/06/17 07:29:30;;;;;;;3.85;3.03;;;26.30;52.30;;;;;;5077674;28;20020;-79
2021/06/17 07:31:56;;;;;;;4.70;3.33;;;26.30;52.30;;;;;;5055346;28;20445;-79
2021/06/17 07:34:22;;;;;;;4.68;3.65;;;26.30;52.20;;;;;;5077639;28;20051;-78
2021/06/17 07:36:48;;;;;;;4.45;3.20;;;26.40;52.40;;;;;;5077175;28;20028;-79
2021/06/17 07:39:15;;;;;;;4.63;3.60;;;26.40;52.30;;;;;;5054718;28;20025;-78
2021/06/17 07:41:41;;;;;;;4.18;3.30;;;26.40;52.30;;;;;;5052716;28;20042;-79
2021/06/17 07:44:07;;;;;;;4.13;3.25;;;26.50;52.30;;;;;;5060754;28;20403;-79
2021/06/17 07:46:33;;;;;;;4.70;3.03;;;26.50;52.30;;;;;;5067661;28;20043;-78
2021/06/17 07:48:59;;;;;;;4.57;3.22;;;26.60;52.40;;;;;;5091733;28;20028;-78
2021/06/17 07:51:28;;;;;;;3.92;3.22;;;26.60;52.40;;;;;;5060573;28;20114;-79
2021/06/17 07:54:01;;;;;;;4.05;3.28;;;26.70;52.60;;;;;;5094520;28;20048;-79
2021/06/17 07:56:28;;;;;;;4.03;3.08;;;26.70;52.50;;;;;;5044013;28;20032;-75
2021/06/17 07:58:54;;;;;;;4.20;3.00;;;26.80;52.50;;;;;;5088924;28;20032;-76
2021/06/17 08:01:20;;;;;;;3.08;2.58;;;26.80;52.40;;;;;;5076385;28;20446;-76
2021/06/17 08:03:46;;;;;;;4.07;2.85;;;26.90;52.50;;;;;;5060413;28;20373;-77
2021/06/17 08:06:12;;;;;;;4.28;3.03;;;26.90;52.50;;;;;;5076654;28;20028;-77
2021/06/17 08:08:38;;;;;;;3.25;2.70;;;27.00;52.50;;;;;;5095029;28;20032;-76
2021/06/17 08:11:04;;;;;;;3.20;2.53;;;27.10;52.50;;;;;;5082703;28;20039;-77
2021/06/17 08:13:29;;;;;;;4.05;2.80;;;27.10;52.50;;;;;;5074615;28;20039;-78
2021/06/17 08:15:56;;;;;;;3.63;2.80;;;27.20;52.50;;;;;;5076865;28;20024;-77
2021/06/17 08:18:22;;;;;;;3.97;2.70;;;27.30;52.50;;;;;;5076274;28;20419;-77
2021/06/17 08:20:48;;;;;;;3.47;2.78;;;27.40;52.50;;;;;;5076931;28;20028;-78
2021/06/17 08:23:15;;;;;;;5.03;2.92;;;27.50;52.50;;;;;;5041743;28;20063;-77
2021/06/17 08:25:41;;;;;;;3.80;2.70;;;27.60;52.50;;;;;;5055035;28;20374;-76
2021/06/17 08:28:07;;;;;;;4.30;2.83;;;27.60;52.50;;;;;;5052282;28;20039;-79
2021/06/17 08:30:34;;;;;;;2.97;2.58;;;27.70;52.50;;;;;;5076362;28;20036;-76
2021/06/17 08:33:01;;;;;;;3.38;2.47;;;27.80;52.60;;;;;;5094542;28;20060;-77
2021/06/17 08:35:27;;;;;;;3.58;2.50;;;27.90;52.50;;;;;;5093602;28;20047;-76
2021/06/17 08:37:54;;;;;;;3.60;2.70;;;28.00;52.40;;;;;;5093966;28;20036;-77
2021/06/17 08:40:24;;;;;;;4.05;2.58;;;28.10;52.40;;;;;;5075570;28;20644;-78
2021/06/17 08:42:49;;;;;;;2.63;2.35;;;28.10;52.30;;;;;;5076265;28;20020;-77
2021/06/17 08:45:15;;;;;;;3.20;2.50;;;28.20;52.10;;;;;;5094219;28;20422;-76
2021/06/17 08:47:41;;;;;;;3.63;2.60;;;28.30;52.10;;;;;;5093996;28;20035;-76
2021/06/17 08:50:10;;;;;;;3.10;2.50;;;28.40;52.00;;;;;;5076342;28;20107;-77
2021/06/17 08:52:40;;;;;;;3.03;2.42;;;28.50;52.00;;;;;;5053001;28;20385;-76
2021/06/17 08:55:11;;;;;;;2.92;2.47;;;28.50;51.90;;;;;;5066286;28;20047;-77
2021/06/17 08:57:37;;;;;;;3.38;2.53;;;28.70;52.00;;;;;;5076334;28;20099;-78
2021/06/17 09:00:26;;;;;;;3.35;2.47;;;28.70;51.90;;;;;;5042507;28;20416;-80
2021/06/17 09:03:01;;;;;;;3.25;2.35;;;28.80;52.10;;;;;;5061511;28;20028;-77
2021/06/17 09:05:28;;;;;;;2.95;2.40;;;28.90;51.90;;;;;;5075593;28;20035;-83
2021/06/17 09:07:54;;;;;;;2.47;2.28;;;29.00;52.00;;;;;;5075660;28;20043;-78
2021/06/17 09:10:21;;;;;;;3.15;2.50;;;29.10;52.00;;;;;;5072478;28;20063;-78
2021/06/17 09:12:49;;;;;;;2.95;2.20;;;29.20;52.00;;;;;;5075048;28;20457;-81
2021/06/17 09:15:30;;;;;;;3.30;2.38;;;29.30;52.00;;;;;;5074532;28;20080;-78
2021/06/17 09:18:23;;;;;;;2.95;2.30;;;29.40;52.20;;;;;;5075119;28;20058;-78
2021/06/17 09:20:56;;;;;;;2.60;2.13;;;29.50;52.10;;;;;;5059992;28;20036;-78
2021/06/17 09:23:35;;;;;;;2.30;2.10;;;29.60;51.90;;;;;;5070130;28;20028;-78
2021/06/17 09:26:17;;;;;;;3.42;2.40;;;29.70;51.90;;;;;;5075505;28;20425;-79
2021/06/17 09:31:34;;;;;;;2.90;2.25;;;29.90;52.00;;;;;;5084865;28;20101;-79
2021/06/17 09:34:02;;;;;;;3.25;2.40;;;30.00;52.00;;;;;;5074631;28;20031;-79
2021/06/17 09:36:31;;;;;;;3.20;2.42;;;30.10;51.80;;;;;;5074018;28;20090;-79
2021/06/17 09:39:00;;;;;;;2.42;2.00;;;30.20;51.80;;;;;;5092460;28;20031;-78
2021/06/17 09:41:41;;;;;;;2.97;2.28;;;30.30;51.80;;;;;;5074279;28;20056;-80
2021/06/17 09:44:37;;;;;;;3.42;2.10;;;30.40;51.80;;;;;;5092461;28;20062;-79
2021/06/17 09:47:10;;;;;;;2.88;2.25;;;30.40;51.70;;;;;;5074866;28;20043;-80
2021/06/17 09:49:40;;;;;;;3.00;2.47;;;30.60;51.60;;;;;;5074456;28;20028;-77
2021/06/17 09:52:07;;;;;;;3.47;2.25;;;30.70;51.60;;;;;;5074505;28;20421;-79
2021/06/17 09:54:33;;;;;;;2.90;2.20;;;30.80;51.60;;;;;;5073414;28;20462;-80
2021/06/17 09:57:10;;;;;;;3.38;2.47;;;30.90;51.60;;;;;;5074620;28;20058;-81
2021/06/17 09:59:54;;;;;;;3.00;2.30;;;31.00;51.60;;;;;;5074301;28;20020;-84
2021/06/17 10:02:38;;;;;;;2.63;2.10;;;31.10;51.60;;;;;;5092590;28;20032;-83
2021/06/17 10:05:21;;;;;;;2.35;1.90;;;31.20;51.60;;;;;;5081293;28;20491;-82
2021/06/17 10:07:48;;;;;;;2.35;2.00;;;31.30;51.60;;;;;;5074533;28;20028;-84
2021/06/17 10:10:16;;;;;;;2.38;1.90;;;31.40;51.50;;;;;;5087780;28;20020;-85
2021/06/17 10:12:43;;;;;;;2.20;2.00;;;31.50;51.50;;;;;;5084312;28;20469;-86
2021/06/17 10:15:10;;;;;;;2.75;2.13;;;31.60;51.60;;;;;;5055463;28;20024;-83
2021/06/17 10:17:36;;;;;;;2.50;2.05;;;31.70;51.40;;;;;;5091637;28;20047;-84
2021/06/17 10:20:05;;;;;;;2.67;2.10;;;31.70;51.20;;;;;;5073133;28;20082;-83
2021/06/17 10:22:37;;;;;;;2.20;1.95;;;31.80;51.10;;;;;;5072015;28;20031;-84
2021/06/17 10:25:05;;;;;;;2.67;1.92;;;32.00;51.00;;;;;;5045683;28;20071;-86
2021/06/17 10:27:41;;;;;;;3.05;2.30;;;32.00;50.80;;;;;;5073917;28;20047;-84
2021/06/17 10:30:08;;;;;;;4.43;2.40;;;32.10;50.80;;;;;;5073315;28;20031;-84
2021/06/17 10:32:36;;;;;;;2.90;2.25;;;32.20;50.60;;;;;;5078924;28;20354;-83
2021/06/17 10:35:04;;;;;;;3.05;2.33;;;32.20;50.50;;;;;;5074605;28;20032;-85
2021/06/17 10:37:47;;;;;;;3.53;2.50;;;32.40;50.50;;;;;;5091974;28;20464;-85
2021/06/17 10:40:13;;;;;;;3.15;2.47;;;32.40;50.40;;;;;;5042765;28;20040;-84
2021/06/17 10:42:46;;;;;;;3.20;2.55;;;32.50;50.30;;;;;;5060094;28;20085;-84
2021/06/17 10:45:39;;;;;;;3.10;2.53;;;32.60;50.30;;;;;;5092185;28;20510;-84
2021/06/17 10:48:25;;;;;;;3.67;2.63;;;32.70;50.90;;;;;;5061446;28;20487;-84
2021/06/17 10:51:11;;;;;;;2.80;2.40;;;32.80;50.10;;;;;;5078512;28;20107;-84
2021/06/17 10:53:50;;;;;;;3.10;2.50;;;32.90;50.10;;;;;;5057391;28;20033;-84
2021/06/17 10:56:26;;;;;;;2.88;2.45;;;33.00;49.90;;;;;;5041622;28;20028;-85
2021/06/17 10:58:57;;;;;;;4.22;2.50;;;33.00;49.90;;;;;;5055117;28;20066;-84
2021/06/17 11:01:34;;;;;;;3.22;2.50;;;33.10;49.80;;;;;;5095630;28;20107;-82
2021/06/17 11:04:08;;;;;;;3.55;2.40;;;33.20;49.80;;;;;;5091040;28;20027;-82
2021/06/17 11:06:53;;;;;;;2.78;2.47;;;33.20;49.70;;;;;;5071398;28;20020;-85
2021/06/17 11:09:34;;;;;;;;;;;33.30;49.70;;;;;;5077193;28;20032;-82
2021/06/17 11:12:00;;;;;;;2.97;2.13;;;33.40;49.70;;;;;;5089362;28;19915;-82
2021/06/17 11:14:26;;;;;;;3.03;2.47;;;33.40;49.50;;;;;;5044240;28;20111;-83
2021/06/17 11:16:55;;;;;;;2.58;2.20;;;33.50;49.70;;;;;;5089122;28;20106;-84
2021/06/17 11:19:21;;;;;;;2.60;2.17;;;33.50;49.60;;;;;;5058977;28;20043;-83
2021/06/17 11:21:49;;;;;;;2.80;2.35;;;33.60;49.60;;;;;;5073406;28;20052;-84
2021/06/17 11:24:21;;;;;;;2.88;2.30;;;33.60;49.60;;;;;;5095832;28;20103;-84
2021/06/17 11:26:49;;;;;;;3.25;2.58;;;33.70;49.60;;;;;;5042914;28;20513;-84
2021/06/17 11:29:19;;;;;;;3.17;2.30;;;33.70;49.60;;;;;;5060806;28;20460;-84
2021/06/17 11:31:50;;;;;;;2.70;2.22;;;33.70;49.60;;;;;;5072323;28;20024;-83
2021/06/17 11:34:37;;;;;;;3.03;2.58;;;33.80;49.80;;;;;;5057698;28;20024;-84
2021/06/17 11:37:11;;;;;;;3.13;2.40;;;33.80;49.80;;;;;;5091453;28;20042;-83
2021/06/17 11:39:37;;;;;;;3.20;2.45;;;33.90;49.70;;;;;;5060633;28;20119;-84
2021/06/17 11:42:05;;;;;;;2.45;2.22;;;34.00;49.90;;;;;;5060600;28;20086;-86
2021/06/17 11:44:32;;;;;;;2.88;2.15;;;34.00;50.00;;;;;;5061073;28;20032;-85
2021/06/17 11:47:07;;;;;;;3.40;2.53;;;34.00;50.10;;;;;;5077987;28;20119;-92
2021/06/17 11:49:35;;;;;;;2.92;2.50;;;34.00;50.20;;;;;;5080182;28;20044;-87
2021/06/17 11:52:06;;;;;;;4.22;2.47;;;34.10;50.30;;;;;;5071068;28;20032;-84
2021/06/17 11:54:32;;;;;;;2.85;2.38;;;34.10;50.40;;;;;;5060411;28;20048;-84
2021/06/17 11:57:00;;;;;;;2.85;2.40;;;34.20;50.50;;;;;;5057202;28;20477;-84
2021/06/17 11:59:30;;;;;;;3.25;2.30;;;34.20;50.60;;;;;;5076655;28;20027;-84
2021/06/17 12:02:22;;;;;;;2.72;2.22;;;34.20;50.50;;;;;;5077444;28;20032;-84
2021/06/17 12:04:58;;;;;;;3.63;2.50;;;34.20;50.70;;;;;;5059991;28;20091;-83
2021/06/17 12:07:27;;;;;;;2.95;2.47;;;34.20;50.70;;;;;;5088870;28;20028;-84
2021/06/17 12:10:03;;;;;;;2.85;2.30;;;34.20;50.80;;;;;;5075036;28;20023;-85
2021/06/17 12:12:29;;;;;;;3.03;2.45;;;34.30;50.90;;;;;;5066615;28;20452;-84
2021/06/17 12:14:56;;;;;;;3.83;2.45;;;34.30;50.90;;;;;;5060511;28;20043;-84
2021/06/17 12:17:30;;;;;;;2.88;2.42;;;34.30;50.90;;;;;;5094695;28;20036;-83
2021/06/17 12:20:08;;;;;;;2.90;2.28;;;34.30;51.00;;;;;;5060429;28;20028;-84
2021/06/17 12:22:34;;;;;;;4.47;2.50;;;34.30;50.90;;;;;;5095070;28;20050;-84
2021/06/17 12:25:00;;;;;;;2.75;2.30;;;34.40;50.90;;;;;;5060165;28;20028;-84
2021/06/17 12:27:25;;;;;;;2.85;2.38;;;34.40;50.90;;;;;;5066560;28;20484;-84
2021/06/17 12:29:51;;;;;;;4.05;2.47;;;34.40;50.80;;;;;;5060548;28;20430;-84
2021/06/17 12:32:32;;;;;;;2.85;2.40;;;34.40;50.80;;;;;;5074912;28;20048;-84
2021/06/17 12:35:10;;;;;;;3.63;2.42;;;34.40;50.80;;;;;;5076907;28;20028;-85
2021/06/17 12:38:01;;;;;;;3.00;2.33;;;34.50;50.80;;;;;;5095841;28;20040;-86
2021/06/17 12:40:29;;;;;;;2.92;2.30;;;34.50;50.70;;;;;;5059824;28;20024;-84
2021/06/17 12:43:02;;;;;;;2.67;2.15;;;34.50;50.60;;;;;;5077192;28;20020;-88
2021/06/17 12:45:29;;;;;;;2.17;1.97;;;34.50;50.50;;;;;;5077441;28;20034;-87
2021/06/17 12:47:55;;;;;;;2.83;2.33;;;34.50;50.40;;;;;;5041056;28;20063;-87
2021/06/17 12:53:10;;;;;;;2.33;2.08;;;34.60;50.30;;;;;;5063443;28;20140;-83
2021/06/17 12:55:37;;;;;;;2.33;2.08;;;34.50;50.20;;;;;;5055021;28;20552;-83
2021/06/17 12:58:05;;;;;;;3.03;2.00;;;34.60;50.20;;;;;;5076633;28;20032;-84
2021/06/17 13:00:30;;;;;;;2.35;2.15;;;34.60;50.20;;;;;;5073093;28;20087;-84
2021/06/17 13:02:56;;;;;;;2.13;1.92;;;34.60;50.10;;;;;;5077003;28;20146;-83
2021/06/17 13:05:24;;;;;;;2.67;2.15;;;34.60;50.10;;;;;;5094421;28;20024;-85
2021/06/17 13:08:00;;;;;;;2.60;1.98;;;34.60;50.00;;;;;;5060084;28;20815;-85